sensor_id;sensor_type;location;lat;lon;timestamp;pressure;altitude;pressure_sealevel;temperature;humidity
23433;BME280;41331;45.412;10.992;2023-06-22T00:00:25;101156.63;;;26.73;63.63
23433;BME280;41331;45.412;10.992;2023-06-22T00:02:53;101158.25;;;26.70;63.78
23433;BME280;41331;45.412;10.992;2023-06-22T00:05:20;101163.03;;;26.70;63.25
23433;BME280;41331;45.412;10.992;2023-06-22T00:07:48;101165.00;;;26.46;63.95
23433;BME280;41331;45.412;10.992;2023-06-22T00:10:15;101166.56;;;26.47;66.39
23433;BME280;41331;45.412;10.992;2023-06-22T00:12:42;101163.19;;;26.28;67.31
23433;BME280;41331;45.412;10.992;2023-06-22T00:15:10;101166.03;;;26.55;60.80
23433;BME280;41331;45.412;10.992;2023-06-22T00:17:37;101170.63;;;26.69;60.52
23433;BME280;41331;45.412;10.992;2023-06-22T00:20:05;101167.88;;;26.35;64.68
23433;BME280;41331;45.412;10.992;2023-06-22T00:22:33;101163.03;;;26.39;63.71
23433;BME280;41331;45.412;10.992;2023-06-22T00:25:08;101165.34;;;26.48;63.68
23433;BME280;41331;45.412;10.992;2023-06-22T00:27:36;101169.28;;;26.20;63.75
23433;BME280;41331;45.412;10.992;2023-06-22T00:30:06;101169.44;;;26.05;63.61
23433;BME280;41331;45.412;10.992;2023-06-22T00:32:34;101160.28;;;26.05;63.63
23433;BME280;41331;45.412;10.992;2023-06-22T00:35:01;101156.69;;;26.08;63.96
23433;BME280;41331;45.412;10.992;2023-06-22T00:37:29;101152.34;;;26.03;65.25
23433;BME280;41331;45.412;10.992;2023-06-22T00:39:57;101149.66;;;25.96;65.29
23433;BME280;41331;45.412;10.992;2023-06-22T00:42:24;101154.38;;;25.99;65.36
23433;BME280;41331;45.412;10.992;2023-06-22T00:44:53;101141.97;;;26.04;64.91
23433;BME280;41331;45.412;10.992;2023-06-22T00:47:21;101139.97;;;26.04;64.84
23433;BME280;41331;45.412;10.992;2023-06-22T00:49:49;101139.63;;;26.02;65.82
23433;BME280;41331;45.412;10.992;2023-06-22T00:52:21;101143.78;;;26.21;64.56
23433;BME280;41331;45.412;10.992;2023-06-22T00:54:56;101145.09;;;26.40;64.52
23433;BME280;41331;45.412;10.992;2023-06-22T00:57:24;101137.59;;;26.64;62.53
23433;BME280;41331;45.412;10.992;2023-06-22T00:59:55;101138.72;;;26.43;65.37
23433;BME280;41331;45.412;10.992;2023-06-22T01:02:23;101140.84;;;26.01;67.57
23433;BME280;41331;45.412;10.992;2023-06-22T01:04:51;101142.91;;;25.94;68.01
23433;BME280;41331;45.412;10.992;2023-06-22T01:13:02;101129.16;;;26.10;65.89
23433;BME280;41331;45.412;10.992;2023-06-22T01:18:04;101133.47;;;26.15;67.52
23433;BME280;41331;45.412;10.992;2023-06-22T01:20:34;101137.91;;;26.12;67.13
23433;BME280;41331;45.412;10.992;2023-06-22T01:26:07;101131.94;;;26.10;67.12
23433;BME280;41331;45.412;10.992;2023-06-22T01:28:50;101136.03;;;26.02;66.99
23433;BME280;41331;45.412;10.992;2023-06-22T01:31:20;101145.28;;;25.95;68.34
23433;BME280;41331;45.412;10.992;2023-06-22T01:33:58;101141.63;;;26.02;66.88
23433;BME280;41331;45.412;10.992;2023-06-22T01:36:27;101136.78;;;26.06;65.75
23433;BME280;41331;45.412;10.992;2023-06-22T01:38:56;101135.59;;;26.07;64.99
23433;BME280;41331;45.412;10.992;2023-06-22T01:41:29;101142.44;;;25.99;64.75
23433;BME280;41331;45.412;10.992;2023-06-22T01:43:57;101149.56;;;26.03;64.74
23433;BME280;41331;45.412;10.992;2023-06-22T01:46:25;101152.34;;;26.03;65.17
23433;BME280;41331;45.412;10.992;2023-06-22T01:48:53;101142.84;;;26.01;66.77
23433;BME280;41331;45.412;10.992;2023-06-22T01:51:22;101142.84;;;26.01;66.34
23433;BME280;41331;45.412;10.992;2023-06-22T01:53:49;101139.16;;;26.07;64.43
23433;BME280;41331;45.412;10.992;2023-06-22T01:56:18;101148.34;;;26.04;64.79
23433;BME280;41331;45.412;10.992;2023-06-22T01:58:54;101137.66;;;25.99;65.49
23433;BME280;41331;45.412;10.992;2023-06-22T02:01:27;101145.69;;;25.94;65.72
23433;BME280;41331;45.412;10.992;2023-06-22T02:04:13;101152.47;;;25.93;65.39
23433;BME280;41331;45.412;10.992;2023-06-22T02:06:42;101144.53;;;25.91;65.20
23433;BME280;41331;45.412;10.992;2023-06-22T02:09:16;101150.53;;;25.90;65.58
23433;BME280;41331;45.412;10.992;2023-06-22T02:11:45;101153.81;;;25.81;66.02
23433;BME280;41331;45.412;10.992;2023-06-22T02:14:15;101147.50;;;25.77;66.24
23433;BME280;41331;45.412;10.992;2023-06-22T02:16:45;101148.56;;;25.87;66.06
23433;BME280;41331;45.412;10.992;2023-06-22T02:19:13;101152.97;;;25.84;66.03
23433;BME280;41331;45.412;10.992;2023-06-22T02:21:43;101152.28;;;25.73;66.27
23433;BME280;41331;45.412;10.992;2023-06-22T02:24:10;101163.16;;;25.60;66.70
23433;BME280;41331;45.412;10.992;2023-06-22T02:26:38;101161.19;;;25.61;66.63
23433;BME280;41331;45.412;10.992;2023-06-22T02:29:07;101173.19;;;25.54;66.87
23433;BME280;41331;45.412;10.992;2023-06-22T02:31:34;101166.81;;;25.53;67.01
23433;BME280;41331;45.412;10.992;2023-06-22T02:34:01;101155.66;;;25.57;66.70
23433;BME280;41331;45.412;10.992;2023-06-22T02:36:29;101159.22;;;25.57;66.77
23433;BME280;41331;45.412;10.992;2023-06-22T02:39:00;101165.94;;;25.60;66.95
23433;BME280;41331;45.412;10.992;2023-06-22T02:41:30;101163.28;;;25.49;66.87
23433;BME280;41331;45.412;10.992;2023-06-22T02:43:57;101162.22;;;25.36;67.39
23433;BME280;41331;45.412;10.992;2023-06-22T02:46:25;101160.22;;;25.37;67.72
23433;BME280;41331;45.412;10.992;2023-06-22T02:48:53;101164.66;;;25.30;68.08
23433;BME280;41331;45.412;10.992;2023-06-22T02:51:20;101166.25;;;25.31;68.20
23433;BME280;41331;45.412;10.992;2023-06-22T02:53:47;101166.16;;;25.39;67.77
23433;BME280;41331;45.412;10.992;2023-06-22T02:56:16;101170.13;;;25.41;68.37
23433;BME280;41331;45.412;10.992;2023-06-22T02:58:44;101167.03;;;25.32;68.03
23433;BME280;41331;45.412;10.992;2023-06-22T03:01:12;101163.47;;;25.28;68.40
23433;BME280;41331;45.412;10.992;2023-06-22T03:03:45;101172.59;;;25.32;68.73
23433;BME280;41331;45.412;10.992;2023-06-22T03:06:12;101163.84;;;25.30;68.48
23433;BME280;41331;45.412;10.992;2023-06-22T03:08:41;101168.19;;;25.35;68.78
23433;BME280;41331;45.412;10.992;2023-06-22T03:11:09;101168.69;;;25.26;68.85
23433;BME280;41331;45.412;10.992;2023-06-22T03:13:37;101164.72;;;25.23;69.18
23433;BME280;41331;45.412;10.992;2023-06-22T03:16:05;101166.28;;;25.24;69.22
23433;BME280;41331;45.412;10.992;2023-06-22T03:18:33;101169.84;;;25.25;69.48
23433;BME280;41331;45.412;10.992;2023-06-22T03:21:00;101171.38;;;25.33;69.69
23433;BME280;41331;45.412;10.992;2023-06-22T03:23:31;101166.69;;;25.26;69.57
23433;BME280;41331;45.412;10.992;2023-06-22T03:25:58;101165.56;;;25.17;70.19
23433;BME280;41331;45.412;10.992;2023-06-22T03:28:26;101173.16;;;25.13;70.65
23433;BME280;41331;45.412;10.992;2023-06-22T03:30:53;101164.00;;;25.16;70.82
23433;BME280;41331;45.412;10.992;2023-06-22T03:33:21;101170.78;;;25.11;71.68
23433;BME280;41331;45.412;10.992;2023-06-22T03:35:49;101167.22;;;25.11;72.07
23433;BME280;41331;45.412;10.992;2023-06-22T03:38:17;101163.56;;;25.17;72.24
23433;BME280;41331;45.412;10.992;2023-06-22T03:40:44;101161.94;;;25.20;71.87
23433;BME280;41331;45.412;10.992;2023-06-22T03:43:13;101160.78;;;25.17;71.73
23433;BME280;41331;45.412;10.992;2023-06-22T03:45:40;101167.59;;;25.13;71.49
23433;BME280;41331;45.412;10.992;2023-06-22T03:48:07;101178.34;;;25.11;72.04
23433;BME280;41331;45.412;10.992;2023-06-22T03:50:35;101169.50;;;25.23;71.56
23433;BME280;41331;45.412;10.992;2023-06-22T03:53:02;101176.97;;;25.29;71.55
23433;BME280;41331;45.412;10.992;2023-06-22T03:55:30;101170.19;;;25.34;71.97
23433;BME280;41331;45.412;10.992;2023-06-22T03:57:57;101169.78;;;25.36;71.49
23433;BME280;41331;45.412;10.992;2023-06-22T04:00:25;101161.44;;;25.36;72.10
23433;BME280;41331;45.412;10.992;2023-06-22T04:02:53;101165.81;;;25.33;73.07
23433;BME280;41331;45.412;10.992;2023-06-22T04:05:21;101163.84;;;25.30;73.19
23433;BME280;41331;45.412;10.992;2023-06-22T04:07:48;101161.47;;;25.32;73.06
23433;BME280;41331;45.412;10.992;2023-06-22T04:10:16;101164.22;;;25.36;73.53
23433;BME280;41331;45.412;10.992;2023-06-22T04:12:53;101165.47;;;25.27;73.59
23433;BME280;41331;45.412;10.992;2023-06-22T04:15:21;101165.38;;;25.38;72.10
23433;BME280;41331;45.412;10.992;2023-06-22T04:17:48;101157.66;;;25.53;72.24
23433;BME280;41331;45.412;10.992;2023-06-22T04:20:15;101157.63;;;25.56;71.35
23433;BME280;41331;45.412;10.992;2023-06-22T04:22:43;101154.06;;;25.56;71.91
23433;BME280;41331;45.412;10.992;2023-06-22T04:25:10;101154.06;;;25.56;70.85
23433;BME280;41331;45.412;10.992;2023-06-22T04:27:37;101159.19;;;25.61;70.59
23433;BME280;41331;45.412;10.992;2023-06-22T04:30:07;101148.44;;;25.60;71.46
23433;BME280;41331;45.412;10.992;2023-06-22T04:32:35;101137.63;;;25.65;70.88
23433;BME280;41331;45.412;10.992;2023-06-22T04:35:07;101145.59;;;25.67;70.45
23433;BME280;41331;45.412;10.992;2023-06-22T04:37:34;101146.78;;;25.66;70.02
23433;BME280;41331;45.412;10.992;2023-06-22T04:40:02;101149.50;;;25.73;69.92
23433;BME280;41331;45.412;10.992;2023-06-22T04:42:34;101152.22;;;25.80;70.69
23433;BME280;41331;45.412;10.992;2023-06-22T04:45:01;101153.06;;;25.73;69.71
23433;BME280;41331;45.412;10.992;2023-06-22T04:47:29;101159.44;;;25.77;69.12
23433;BME280;41331;45.412;10.992;2023-06-22T04:49:56;101156.22;;;25.79;68.73
23433;BME280;41331;45.412;10.992;2023-06-22T04:52:24;101160.19;;;25.81;68.87
23433;BME280;41331;45.412;10.992;2023-06-22T04:54:52;101164.53;;;25.86;68.57
23433;BME280;41331;45.412;10.992;2023-06-22T04:57:22;101160.84;;;25.93;68.75
23433;BME280;41331;45.412;10.992;2023-06-22T05:00:01;101159.34;;;25.85;67.98
23433;BME280;41331;45.412;10.992;2023-06-22T05:02:39;101150.19;;;25.84;68.41
23433;BME280;41331;45.412;10.992;2023-06-22T05:05:07;101153.56;;;26.02;68.51
23433;BME280;41331;45.412;10.992;2023-06-22T05:07:36;101158.50;;;25.91;68.27
23433;BME280;41331;45.412;10.992;2023-06-22T05:10:04;101162.44;;;25.94;68.62
23433;BME280;41331;45.412;10.992;2023-06-22T05:12:32;101171.53;;;25.98;67.64
23433;BME280;41331;45.412;10.992;2023-06-22T05:14:59;101160.72;;;26.03;68.54
23433;BME280;41331;45.412;10.992;2023-06-22T05:17:27;101163.16;;;26.01;70.14
23433;BME280;41331;45.412;10.992;2023-06-22T05:19:54;101166.28;;;26.03;69.06
23433;BME280;41331;45.412;10.992;2023-06-22T05:22:22;101164.59;;;26.13;69.92
23433;BME280;41331;45.412;10.992;2023-06-22T05:24:49;101160.66;;;26.11;69.81
23433;BME280;41331;45.412;10.992;2023-06-22T05:27:16;101164.56;;;26.17;70.77
23433;BME280;41331;45.412;10.992;2023-06-22T05:29:44;101160.56;;;26.18;70.65
23433;BME280;41331;45.412;10.992;2023-06-22T05:32:11;101164.09;;;26.22;71.06
23433;BME280;41331;45.412;10.992;2023-06-22T05:34:39;101163.66;;;26.23;69.69
23433;BME280;41331;45.412;10.992;2023-06-22T05:37:06;101163.81;;;26.43;69.78
23433;BME280;41331;45.412;10.992;2023-06-22T05:39:33;101159.34;;;26.49;68.81
23433;BME280;41331;45.412;10.992;2023-06-22T05:42:01;101155.69;;;26.56;69.73
23433;BME280;41331;45.412;10.992;2023-06-22T05:44:28;101159.41;;;26.73;68.52
23433;BME280;41331;45.412;10.992;2023-06-22T05:46:56;101162.09;;;26.80;70.38
23433;BME280;41331;45.412;10.992;2023-06-22T05:49:23;101156.44;;;26.83;69.41
23433;BME280;41331;45.412;10.992;2023-06-22T05:51:51;101150.91;;;27.07;68.70
23433;BME280;41331;45.412;10.992;2023-06-22T05:54:19;101156.69;;;27.20;67.91
23433;BME280;41331;45.412;10.992;2023-06-22T05:56:46;101155.66;;;27.33;67.14
23433;BME280;41331;45.412;10.992;2023-06-22T05:59:13;101156.69;;;27.43;67.91
23433;BME280;41331;45.412;10.992;2023-06-22T06:01:41;101151.19;;;27.59;67.30
23433;BME280;41331;45.412;10.992;2023-06-22T06:04:08;101145.13;;;27.84;65.03
23433;BME280;41331;45.412;10.992;2023-06-22T06:06:36;101148.31;;;27.86;63.50
23433;BME280;41331;45.412;10.992;2023-06-22T06:09:04;101153.00;;;28.09;61.39
23433;BME280;41331;45.412;10.992;2023-06-22T06:11:32;101144.91;;;28.15;60.74
23433;BME280;41331;45.412;10.992;2023-06-22T06:13:59;101147.19;;;28.00;61.94
23433;BME280;41331;45.412;10.992;2023-06-22T06:16:27;101147.91;;;28.04;61.95
23433;BME280;41331;45.412;10.992;2023-06-22T06:18:54;101156.19;;;27.92;61.44
23433;BME280;41331;45.412;10.992;2023-06-22T06:21:23;101152.50;;;27.75;65.10
23433;BME280;41331;45.412;10.992;2023-06-22T06:23:50;101159.56;;;27.83;63.44
23433;BME280;41331;45.412;10.992;2023-06-22T06:26:18;101161.19;;;27.80;63.24
23433;BME280;41331;45.412;10.992;2023-06-22T06:28:45;101163.03;;;27.67;67.01
23433;BME280;41331;45.412;10.992;2023-06-22T06:31:12;101158.34;;;27.60;67.74
23433;BME280;41331;45.412;10.992;2023-06-22T06:33:44;101157.06;;;27.65;68.29
23433;BME280;41331;45.412;10.992;2023-06-22T06:36:11;101164.59;;;27.68;67.92
23433;BME280;41331;45.412;10.992;2023-06-22T06:38:39;101160.22;;;27.67;67.87
23433;BME280;41331;45.412;10.992;2023-06-22T06:41:06;101159.00;;;27.92;65.09
23433;BME280;41331;45.412;10.992;2023-06-22T06:43:33;101152.97;;;27.93;64.44
23433;BME280;41331;45.412;10.992;2023-06-22T06:46:01;101155.53;;;27.84;66.70
23433;BME280;41331;45.412;10.992;2023-06-22T06:48:30;101156.38;;;27.81;65.10
23433;BME280;41331;45.412;10.992;2023-06-22T06:50:58;101159.50;;;27.86;67.16
23433;BME280;41331;45.412;10.992;2023-06-22T06:53:25;101161.69;;;27.95;64.61
23433;BME280;41331;45.412;10.992;2023-06-22T06:55:52;101168.34;;;28.01;66.28
23433;BME280;41331;45.412;10.992;2023-06-22T06:58:20;101169.97;;;28.02;66.05
23433;BME280;41331;45.412;10.992;2023-06-22T07:00:47;101164.06;;;28.17;65.38
23433;BME280;41331;45.412;10.992;2023-06-22T07:03:15;101158.75;;;28.22;64.60
23433;BME280;41331;45.412;10.992;2023-06-22T07:05:42;101159.94;;;28.41;63.97
23433;BME280;41331;45.412;10.992;2023-06-22T07:08:09;101142.31;;;28.60;62.70
23433;BME280;41331;45.412;10.992;2023-06-22T07:10:37;101141.19;;;28.74;61.35
23433;BME280;41331;45.412;10.992;2023-06-22T07:13:05;101134.56;;;29.17;59.14
23433;BME280;41331;45.412;10.992;2023-06-22T07:15:32;101132.75;;;29.39;56.27
23433;BME280;41331;45.412;10.992;2023-06-22T07:17:59;101124.97;;;29.31;55.74
23433;BME280;41331;45.412;10.992;2023-06-22T07:20:27;101133.59;;;29.24;55.45
23433;BME280;41331;45.412;10.992;2023-06-22T07:22:55;101138.94;;;29.18;56.88
23433;BME280;41331;45.412;10.992;2023-06-22T07:25:22;101126.03;;;29.21;56.54
23433;BME280;41331;45.412;10.992;2023-06-22T07:30:25;101130.84;;;29.36;57.83
23433;BME280;41331;45.412;10.992;2023-06-22T07:32:52;101134.78;;;29.39;58.83
23433;BME280;41331;45.412;10.992;2023-06-22T07:35:20;101135.66;;;29.36;57.92
23433;BME280;41331;45.412;10.992;2023-06-22T07:37:48;101135.47;;;29.43;56.10
23433;BME280;41331;45.412;10.992;2023-06-22T07:40:16;101138.81;;;29.54;57.81
23433;BME280;41331;45.412;10.992;2023-06-22T07:42:44;101127.75;;;29.76;55.78
23433;BME280;41331;45.412;10.992;2023-06-22T07:45:11;101116.50;;;29.92;56.07
23433;BME280;41331;45.412;10.992;2023-06-22T07:47:38;101127.25;;;29.94;56.52
23433;BME280;41331;45.412;10.992;2023-06-22T07:50:06;101129.59;;;30.25;55.69
23433;BME280;41331;45.412;10.992;2023-06-22T07:52:33;101127.34;;;30.32;55.26
23433;BME280;41331;45.412;10.992;2023-06-22T07:55:01;101133.41;;;30.69;54.24
23433;BME280;41331;45.412;10.992;2023-06-22T07:57:30;101129.16;;;30.77;54.38
23433;BME280;41331;45.412;10.992;2023-06-22T08:00:04;101131.03;;;31.06;53.47
23433;BME280;41331;45.412;10.992;2023-06-22T08:02:41;101132.06;;;30.99;54.56
23433;BME280;41331;45.412;10.992;2023-06-22T08:05:09;101134.44;;;31.23;52.59
23433;BME280;41331;45.412;10.992;2023-06-22T08:07:57;101135.34;;;31.32;52.45
23433;BME280;41331;45.412;10.992;2023-06-22T08:10:24;101132.44;;;31.23;53.59
23433;BME280;41331;45.412;10.992;2023-06-22T08:12:52;101139.19;;;31.26;51.76
23433;BME280;41331;45.412;10.992;2023-06-22T08:15:20;101140.44;;;31.59;49.93
23433;BME280;41331;45.412;10.992;2023-06-22T08:17:49;101145.19;;;31.50;50.01
23433;BME280;41331;45.412;10.992;2023-06-22T08:20:16;101153.16;;;31.51;48.66
23433;BME280;41331;45.412;10.992;2023-06-22T08:22:44;101146.28;;;31.52;47.53
23433;BME280;41331;45.412;10.992;2023-06-22T08:25:11;101139.25;;;31.69;46.68
23433;BME280;41331;45.412;10.992;2023-06-22T08:27:40;101145.38;;;31.33;47.42
23433;BME280;41331;45.412;10.992;2023-06-22T08:30:09;101149.47;;;31.54;47.02
23433;BME280;41331;45.412;10.992;2023-06-22T08:32:38;101148.16;;;31.68;47.31
23433;BME280;41331;45.412;10.992;2023-06-22T08:35:06;101138.00;;;31.70;48.55
23433;BME280;41331;45.412;10.992;2023-06-22T08:37:36;101135.81;;;31.87;49.11
23433;BME280;41331;45.412;10.992;2023-06-22T08:40:05;101133.94;;;31.71;48.88
23433;BME280;41331;45.412;10.992;2023-06-22T08:42:34;101138.19;;;31.76;49.33
23433;BME280;41331;45.412;10.992;2023-06-22T08:45:02;101143.00;;;32.10;49.07
23433;BME280;41331;45.412;10.992;2023-06-22T08:47:30;101138.38;;;32.26;48.45
23433;BME280;41331;45.412;10.992;2023-06-22T08:49:58;101138.38;;;32.26;47.93
23433;BME280;41331;45.412;10.992;2023-06-22T08:52:25;101136.63;;;31.75;48.47
23433;BME280;41331;45.412;10.992;2023-06-22T08:54:53;101128.13;;;31.44;49.78
23433;BME280;41331;45.412;10.992;2023-06-22T08:57:21;101134.66;;;31.63;50.75
23433;BME280;41331;45.412;10.992;2023-06-22T08:59:49;101131.75;;;31.88;50.03
23433;BME280;41331;45.412;10.992;2023-06-22T09:02:19;101128.06;;;31.79;50.56
23433;BME280;41331;45.412;10.992;2023-06-22T09:04:47;101130.81;;;31.91;50.10
23433;BME280;41331;45.412;10.992;2023-06-22T09:07:16;101117.84;;;31.50;51.00
23433;BME280;41331;45.412;10.992;2023-06-22T09:09:49;101119.81;;;31.40;51.45
23433;BME280;41331;45.412;10.992;2023-06-22T09:12:17;101121.56;;;31.47;52.20
23433;BME280;41331;45.412;10.992;2023-06-22T09:14:47;101119.81;;;31.40;51.51
23433;BME280;41331;45.412;10.992;2023-06-22T09:17:14;101119.19;;;31.58;51.73
23433;BME280;41331;45.412;10.992;2023-06-22T09:19:42;101118.25;;;31.61;51.60
23433;BME280;41331;45.412;10.992;2023-06-22T09:22:09;101116.53;;;32.08;50.60
23433;BME280;41331;45.412;10.992;2023-06-22T09:24:36;101114.06;;;32.41;49.54
23433;BME280;41331;45.412;10.992;2023-06-22T09:27:04;101111.78;;;32.67;49.23
23433;BME280;41331;45.412;10.992;2023-06-22T09:29:31;101106.69;;;32.84;48.78
23433;BME280;41331;45.412;10.992;2023-06-22T09:32:01;101118.41;;;32.82;47.10
23433;BME280;41331;45.412;10.992;2023-06-22T09:34:29;101110.34;;;33.12;47.82
23433;BME280;41331;45.412;10.992;2023-06-22T09:36:58;101107.69;;;33.17;47.13
23433;BME280;41331;45.412;10.992;2023-06-22T09:39:27;101103.59;;;33.18;46.38
23433;BME280;41331;45.412;10.992;2023-06-22T09:41:58;101110.84;;;33.47;46.16
23433;BME280;41331;45.412;10.992;2023-06-22T09:44:26;101109.09;;;33.59;46.05
23433;BME280;41331;45.412;10.992;2023-06-22T09:46:54;101105.69;;;33.45;45.33
23433;BME280;41331;45.412;10.992;2023-06-22T09:49:21;101098.00;;;33.46;45.16
23433;BME280;41331;45.412;10.992;2023-06-22T09:52:08;101088.25;;;33.56;44.87
23433;BME280;41331;45.412;10.992;2023-06-22T09:54:36;101084.50;;;33.41;46.10
23433;BME280;41331;45.412;10.992;2023-06-22T09:57:03;101062.41;;;33.39;45.77
23433;BME280;41331;45.412;10.992;2023-06-22T09:59:31;101069.16;;;33.42;46.24
23433;BME280;41331;45.412;10.992;2023-06-22T10:01:58;101062.06;;;33.37;46.49
23433;BME280;41331;45.412;10.992;2023-06-22T10:04:26;101059.28;;;33.46;45.38
23433;BME280;41331;45.412;10.992;2023-06-22T10:06:54;101057.53;;;33.58;44.91
23433;BME280;41331;45.412;10.992;2023-06-22T10:09:21;101059.56;;;34.18;44.45
23433;BME280;41331;45.412;10.992;2023-06-22T10:11:49;101044.22;;;34.10;42.49
23433;BME280;41331;45.412;10.992;2023-06-22T10:14:16;101049.63;;;33.99;43.33
23433;BME280;41331;45.412;10.992;2023-06-22T10:16:44;101037.97;;;34.06;42.84
23433;BME280;41331;45.412;10.992;2023-06-22T10:19:11;101041.66;;;34.21;42.66
23433;BME280;41331;45.412;10.992;2023-06-22T10:21:39;101034.38;;;34.06;42.68
23433;BME280;41331;45.412;10.992;2023-06-22T10:24:06;101036.63;;;34.25;42.09
23433;BME280;41331;45.412;10.992;2023-06-22T10:26:34;101035.09;;;34.15;41.58
23433;BME280;41331;45.412;10.992;2023-06-22T10:29:03;101043.00;;;33.93;41.03
